createdAt,value
2022-09-25T00:01:00.363Z,1.70
2022-09-25T00:03:30.485Z,2.08
2022-09-25T00:06:09.649Z,1.77
2022-09-25T00:08:37.386Z,1.92
2022-09-25T00:11:11.111Z,2.33
2022-09-25T00:13:38.591Z,1.90
2022-09-25T00:16:05.718Z,1.92
2022-09-25T00:18:51.321Z,1.95
2022-09-25T00:21:18.537Z,2.00
2022-09-25T00:23:46.200Z,2.00
2022-09-25T00:26:15.393Z,1.95
2022-09-25T00:28:43.251Z,1.95
2022-09-25T00:31:11.113Z,2.05
2022-09-25T00:33:37.874Z,2.28
2022-09-25T00:36:07.551Z,1.70
2022-09-25T00:38:35.994Z,2.20
2022-09-25T00:41:03.560Z,2.08
2022-09-25T00:43:40.927Z,2.13
2022-09-25T00:46:13.798Z,2.17
2022-09-25T00:49:00.848Z,2.25
2022-09-25T00:51:34.981Z,1.70
2022-09-25T00:54:05.442Z,2.55
2022-09-25T00:56:37.968Z,2.20
2022-09-25T00:59:06.971Z,2.10
2022-09-25T01:01:33.677Z,2.05
2022-09-25T01:04:00.691Z,2.22
2022-09-25T01:06:28.256Z,2.33
2022-09-25T01:08:56.613Z,2.25
2022-09-25T01:11:23.319Z,1.50
2022-09-25T01:13:54.164Z,2.33
2022-09-25T01:16:35.542Z,1.85
2022-09-25T01:19:20.425Z,1.95
2022-09-25T01:21:54.704Z,2.92
2022-09-25T01:24:42.805Z,2.35
2022-09-25T01:27:27.736Z,2.33
2022-09-25T01:30:05.951Z,2.10
2022-09-25T01:32:43.629Z,1.80
2022-09-25T01:35:22.263Z,2.47
2022-09-25T01:38:00.162Z,2.20
2022-09-25T01:40:26.875Z,1.92
2022-09-25T01:43:01.937Z,1.83
2022-09-25T01:45:55.265Z,2.08
2022-09-25T01:48:26.617Z,1.80
2022-09-25T01:51:31.244Z,2.05
2022-09-25T01:54:04.314Z,2.08
2022-09-25T01:56:39.986Z,2.00
2022-09-25T01:59:13.351Z,1.65
2022-09-25T02:01:42.603Z,1.95
2022-09-25T02:04:16.424Z,2.05
2022-09-25T02:06:47.713Z,2.70
2022-09-25T02:09:20.811Z,2.05
2022-09-25T02:11:51.869Z,2.00
2022-09-25T02:14:23.374Z,1.70
2022-09-25T02:16:56.451Z,1.90
2022-09-25T02:19:42.753Z,1.77
2022-09-25T02:22:20.328Z,1.63
2022-09-25T02:25:00.725Z,2.25
2022-09-25T02:27:28.556Z,2.33
2022-09-25T02:29:58.576Z,2.05
2022-09-25T02:32:31.173Z,2.15
2022-09-25T02:35:00.011Z,2.15
2022-09-25T02:37:27.394Z,1.85
2022-09-25T02:39:58.270Z,1.92
2022-09-25T02:42:36.331Z,2.00
2022-09-25T02:45:42.830Z,2.03
2022-09-25T02:48:16.066Z,2.63
2022-09-25T02:50:54.648Z,2.10
2022-09-25T02:53:36.699Z,2.17
2022-09-25T02:56:09.843Z,2.15
2022-09-25T02:58:52.549Z,1.98
2022-09-25T03:01:22.581Z,1.60
2022-09-25T03:03:53.944Z,1.85
2022-09-25T03:06:22.720Z,2.03
2022-09-25T03:08:54.364Z,1.65
2022-09-25T03:11:21.852Z,1.60
2022-09-25T03:14:07.558Z,1.58
2022-09-25T03:16:52.075Z,1.80
2022-09-25T03:19:22.116Z,1.60
2022-09-25T03:21:50.080Z,2.03
2022-09-25T03:24:17.216Z,1.63
2022-09-25T03:26:44.647Z,1.90
2022-09-25T03:29:15.410Z,1.88
2022-09-25T03:31:42.738Z,1.92
2022-09-25T03:34:11.306Z,1.80
2022-09-25T03:36:38.059Z,2.30
2022-09-25T03:39:06.191Z,1.70
2022-09-25T03:41:35.475Z,1.50
2022-09-25T03:44:02.388Z,1.83
2022-09-25T03:46:31.940Z,1.98
2022-09-25T03:48:58.993Z,1.80
2022-09-25T03:51:27.618Z,1.88
2022-09-25T03:53:54.734Z,1.67
2022-09-25T03:56:24.619Z,1.70
2022-09-25T03:58:54.425Z,1.73
2022-09-25T04:01:22.693Z,1.75
2022-09-25T04:03:50.047Z,1.70
2022-09-25T04:06:20.121Z,1.95
2022-09-25T04:08:48.555Z,2.00
2022-09-25T04:11:17.127Z,1.98
2022-09-25T04:13:46.991Z,1.80
2022-09-25T04:16:16.155Z,2.38
2022-09-25T04:18:43.652Z,1.95
2022-09-25T04:21:13.534Z,1.80
2022-09-25T04:23:41.150Z,2.00
2022-09-25T04:26:09.264Z,2.00
2022-09-25T04:28:36.362Z,1.70
2022-09-25T04:31:04.153Z,2.75
2022-09-25T04:33:46.573Z,2.00
2022-09-25T04:36:14.461Z,2.58
2022-09-25T04:38:41.367Z,2.03
2022-09-25T04:41:08.321Z,2.35
2022-09-25T04:43:35.510Z,2.03
2022-09-25T04:46:06.970Z,1.90
2022-09-25T04:48:34.299Z,1.95
2022-09-25T04:51:01.101Z,2.05
2022-09-25T04:53:30.555Z,2.33
2022-09-25T04:56:02.464Z,2.63
2022-09-25T04:58:29.184Z,2.58
2022-09-25T05:00:55.910Z,1.98
2022-09-25T05:03:22.679Z,1.92
2022-09-25T05:05:49.728Z,1.92
2022-09-25T05:08:16.410Z,2.58
2022-09-25T05:10:44.391Z,2.10
2022-09-25T05:13:11.447Z,1.90
2022-09-25T05:15:38.230Z,2.17
2022-09-25T05:18:15.909Z,1.48
2022-09-25T05:20:42.884Z,1.95
2022-09-25T05:23:09.769Z,1.55
2022-09-25T05:25:36.570Z,1.90
2022-09-25T05:28:03.536Z,1.88
2022-09-25T05:30:32.559Z,1.85
2022-09-25T05:32:59.842Z,1.52
2022-09-25T05:35:29.400Z,1.67
2022-09-25T05:37:56.316Z,1.27
2022-09-25T05:40:24.268Z,1.65
2022-09-25T05:42:52.128Z,1.63
2022-09-25T05:45:20.390Z,1.70
2022-09-25T05:47:47.366Z,1.60
2022-09-25T05:50:16.310Z,2.05
2022-09-25T05:52:43.452Z,1.70
2022-09-25T05:55:11.067Z,1.48
2022-09-25T05:57:38.825Z,2.15
2022-09-25T06:00:11.667Z,2.15
2022-09-25T06:02:38.344Z,2.00
2022-09-25T06:05:05.544Z,2.20
2022-09-25T06:07:32.250Z,2.00
2022-09-25T06:09:58.931Z,1.67
2022-09-25T06:12:25.724Z,1.67
2022-09-25T06:14:52.822Z,1.83
2022-09-25T06:17:20.413Z,2.15
2022-09-25T06:19:47.656Z,1.70
2022-09-25T06:22:14.619Z,2.20
2022-09-25T06:24:41.393Z,1.77
2022-09-25T06:27:08.925Z,1.77
2022-09-25T06:29:36.078Z,2.30
2022-09-25T06:32:05.840Z,1.80
2022-09-25T06:34:32.809Z,1.52
2022-09-25T06:37:01.288Z,1.85
2022-09-25T06:39:28.015Z,2.10
2022-09-25T06:41:54.655Z,1.70
2022-09-25T06:44:23.045Z,1.40
2022-09-25T06:46:54.631Z,2.00
2022-09-25T06:49:22.067Z,1.73
2022-09-25T06:51:51.146Z,1.40
2022-09-25T06:54:18.178Z,1.98
2022-09-25T06:56:49.483Z,1.67
2022-09-25T06:59:17.074Z,1.67
2022-09-25T07:01:43.891Z,1.52
2022-09-25T07:04:10.716Z,1.52
2022-09-25T07:06:37.977Z,1.83
2022-09-25T07:09:04.898Z,1.60
2022-09-25T07:11:31.649Z,1.60
2022-09-25T07:13:58.667Z,1.45
2022-09-25T07:16:27.898Z,1.48
2022-09-25T07:18:57.399Z,1.60
2022-09-25T07:21:25.897Z,1.83
2022-09-25T07:23:52.682Z,1.52
2022-09-25T07:26:22.531Z,2.13
2022-09-25T07:28:57.728Z,1.77
2022-09-25T07:31:29.658Z,1.30
2022-09-25T07:33:59.589Z,1.65
2022-09-25T07:36:26.263Z,1.80
2022-09-25T07:38:53.491Z,1.70
2022-09-25T07:41:22.878Z,2.45
2022-09-25T07:46:44.881Z,1.63
2022-09-25T07:49:12.149Z,1.75
2022-09-25T07:51:41.701Z,1.60
2022-09-25T07:54:08.539Z,1.40
2022-09-25T07:56:35.373Z,1.83
2022-09-25T07:59:02.110Z,1.60
2022-09-25T08:01:28.896Z,1.52
2022-09-25T08:03:55.690Z,1.98
2022-09-25T08:06:22.382Z,1.27
2022-09-25T08:08:49.137Z,1.40
2022-09-25T08:11:18.377Z,1.90
2022-09-25T08:13:46.140Z,1.58
2022-09-25T08:16:18.169Z,1.70
2022-09-25T08:18:46.684Z,1.73
2022-09-25T08:21:16.076Z,1.40
2022-09-25T08:23:48.045Z,1.70
2022-09-25T08:26:15.678Z,1.35
2022-09-25T08:28:42.659Z,1.30
2022-09-25T08:31:09.462Z,1.30
2022-09-25T08:33:37.524Z,1.42
2022-09-25T08:36:05.623Z,1.30
2022-09-25T08:38:33.396Z,1.77
2022-09-25T08:41:09.668Z,1.45
2022-09-25T08:43:43.111Z,1.30
2022-09-25T08:46:41.283Z,1.30
2022-09-25T08:49:11.303Z,1.30
2022-09-25T08:51:38.107Z,1.70
2022-09-25T08:54:06.010Z,1.33
2022-09-25T08:56:35.269Z,1.55
2022-09-25T08:59:10.821Z,1.70
2022-09-25T09:01:44.201Z,1.33
2022-09-25T09:04:19.879Z,1.23
2022-09-25T09:07:08.113Z,1.38
2022-09-25T09:09:52.974Z,1.52
2022-09-25T09:12:32.124Z,1.40
2022-09-25T09:15:16.683Z,1.25
2022-09-25T09:17:43.701Z,1.15
2022-09-25T09:20:19.383Z,1.42
2022-09-25T09:22:53.285Z,1.50
2022-09-25T09:25:35.246Z,1.77
2022-09-25T09:28:23.082Z,1.40
2022-09-25T09:30:58.716Z,1.30
2022-09-25T09:33:35.636Z,1.30
2022-09-25T09:36:13.682Z,1.45
2022-09-25T09:39:02.603Z,1.40
2022-09-25T09:41:44.208Z,1.38
2022-09-25T09:44:13.833Z,1.60
2022-09-25T09:47:04.229Z,1.23
2022-09-25T09:49:47.539Z,1.42
2022-09-25T09:52:25.598Z,1.33
2022-09-25T09:55:07.673Z,1.25
2022-09-25T09:57:47.563Z,1.20
2022-09-25T10:00:17.129Z,1.23
2022-09-25T10:02:46.304Z,1.10
2022-09-25T10:05:22.949Z,1.40
2022-09-25T10:07:51.452Z,1.17
2022-09-25T10:10:19.626Z,1.00
2022-09-25T10:12:53.060Z,1.30
2022-09-25T10:15:36.317Z,1.13
2022-09-25T10:18:04.474Z,0.95
2022-09-25T10:21:06.861Z,1.15
2022-09-25T10:23:51.632Z,1.20
2022-09-25T10:26:33.427Z,1.00
2022-09-25T10:29:05.794Z,1.10
2022-09-25T10:31:40.834Z,1.33
2022-09-25T10:34:13.659Z,1.20
2022-09-25T10:36:46.544Z,1.13
2022-09-25T10:39:44.718Z,1.30
2022-09-25T10:42:37.592Z,1.02
2022-09-25T10:45:32.174Z,0.98
2022-09-25T10:48:17.718Z,1.05
2022-09-25T10:50:44.644Z,1.10
2022-09-25T10:53:33.378Z,1.13
2022-09-25T10:56:13.089Z,1.05
2022-09-25T10:58:55.284Z,1.08
2022-09-25T11:01:31.251Z,1.00
2022-09-25T11:03:59.013Z,1.40
2022-09-25T11:06:33.379Z,1.00
2022-09-25T11:09:13.699Z,1.08
2022-09-25T11:11:41.459Z,0.93
2022-09-25T11:14:22.657Z,1.08
2022-09-25T11:16:55.493Z,0.90
2022-09-25T11:19:25.419Z,1.10
2022-09-25T11:22:18.341Z,1.40
2022-09-25T11:25:01.086Z,1.00
2022-09-25T11:30:18.309Z,0.95
2022-09-25T11:33:09.098Z,1.00
2022-09-25T11:35:45.992Z,1.00
2022-09-25T11:38:15.712Z,0.93
2022-09-25T11:41:18.729Z,0.98
2022-09-25T11:43:58.371Z,1.07
2022-09-25T11:47:04.973Z,1.20
2022-09-25T11:49:38.323Z,1.30
2022-09-25T11:52:23.953Z,1.58
2022-09-25T11:55:34.763Z,1.30
2022-09-25T11:58:04.361Z,1.42
2022-09-25T12:00:38.653Z,1.20
2022-09-25T12:03:30.419Z,1.13
2022-09-25T12:06:15.978Z,1.10
2022-09-25T12:09:04.267Z,1.23
2022-09-25T12:11:45.623Z,1.30
2022-09-25T12:14:22.536Z,0.90
2022-09-25T12:17:01.917Z,1.27
2022-09-25T12:19:45.649Z,1.10
2022-09-25T12:22:49.843Z,1.30
2022-09-25T12:25:45.189Z,0.82
2022-09-25T12:28:17.843Z,1.05
2022-09-25T12:31:10.698Z,1.10
2022-09-25T12:33:46.328Z,1.20
2022-09-25T12:36:19.415Z,0.90
2022-09-25T12:41:36.453Z,0.75
2022-09-25T12:44:27.451Z,1.00
2022-09-25T12:46:57.731Z,0.98
2022-09-25T12:49:37.306Z,0.95
2022-09-25T12:52:17.366Z,1.00
2022-09-25T12:55:07.647Z,1.10
2022-09-25T12:57:46.034Z,0.70
2022-09-25T13:00:29.199Z,0.80
2022-09-25T13:03:02.248Z,0.90
2022-09-25T13:08:12.998Z,1.00
2022-09-25T13:11:02.320Z,0.90
2022-09-25T13:13:36.221Z,1.00
2022-09-25T13:16:03.757Z,0.90
2022-09-25T13:18:34.213Z,0.80
2022-09-25T13:21:31.790Z,1.45
2022-09-25T13:24:00.300Z,1.25
2022-09-25T13:26:28.256Z,0.80
2022-09-25T13:29:01.908Z,0.80
2022-09-25T13:31:34.627Z,0.90
2022-09-25T13:34:01.566Z,0.70
2022-09-25T13:36:38.129Z,0.77
2022-09-25T13:39:45.018Z,0.70
2022-09-25T13:42:39.493Z,0.77
2022-09-25T13:45:26.203Z,0.85
2022-09-25T13:48:04.450Z,1.23
2022-09-25T13:50:37.864Z,0.75
2022-09-25T13:53:23.172Z,1.10
2022-09-25T13:55:56.496Z,0.90
2022-09-25T13:58:29.323Z,0.95
2022-09-25T14:01:03.177Z,0.80
2022-09-25T14:03:50.543Z,0.85
2022-09-25T14:06:20.879Z,0.88
2022-09-25T14:08:49.654Z,1.20
2022-09-25T14:11:22.484Z,0.80
2022-09-25T14:13:52.877Z,1.10
2022-09-25T14:16:30.703Z,1.00
2022-09-25T14:18:59.296Z,0.88
2022-09-25T14:21:28.529Z,1.10
2022-09-25T14:24:13.232Z,1.00
2022-09-25T14:26:45.568Z,0.90
2022-09-25T14:29:23.672Z,0.80
2022-09-25T14:32:42.855Z,1.00
2022-09-25T14:35:25.169Z,0.90
2022-09-25T14:38:12.341Z,1.00
2022-09-25T14:41:56.157Z,0.80
2022-09-25T14:44:57.702Z,0.90
2022-09-25T14:47:34.992Z,0.90
2022-09-25T14:50:03.171Z,0.80
2022-09-25T14:52:34.859Z,0.70
2022-09-25T14:55:03.276Z,0.70
2022-09-25T14:57:34.856Z,0.80
2022-09-25T15:00:08.215Z,1.00
2022-09-25T15:02:41.866Z,0.70
2022-09-25T15:05:21.632Z,0.98
2022-09-25T15:07:48.320Z,0.95
2022-09-25T15:10:34.854Z,1.20
2022-09-25T15:13:10.591Z,1.13
2022-09-25T15:15:38.875Z,0.90
2022-09-25T15:18:13.113Z,0.95
2022-09-25T15:20:46.971Z,1.40
2022-09-25T15:23:21.331Z,0.88
2022-09-25T15:25:51.775Z,0.80
2022-09-25T15:28:25.525Z,0.93
2022-09-25T15:31:00.772Z,0.80
2022-09-25T15:33:34.161Z,0.80
2022-09-25T15:36:06.339Z,0.98
2022-09-25T15:38:35.774Z,0.80
2022-09-25T15:41:22.255Z,1.10
2022-09-25T15:44:18.461Z,1.00
2022-09-25T15:47:00.869Z,1.10
2022-09-25T15:49:39.096Z,1.10
2022-09-25T15:52:25.214Z,1.05
2022-09-25T15:54:51.984Z,1.52
2022-09-25T15:57:28.344Z,1.50
2022-09-25T16:00:13.946Z,1.20
2022-09-25T16:03:09.744Z,1.30
2022-09-25T16:05:43.749Z,1.40
2022-09-25T16:08:25.804Z,1.00
2022-09-25T16:11:21.821Z,1.00
2022-09-25T16:13:53.996Z,1.02
2022-09-25T16:16:22.219Z,1.00
2022-09-25T16:18:51.219Z,1.35
2022-09-25T16:21:26.933Z,1.08
2022-09-25T16:24:00.132Z,1.13
2022-09-25T16:26:36.214Z,1.00
2022-09-25T16:29:19.489Z,1.13
2022-09-25T16:31:47.077Z,1.73
2022-09-25T16:34:34.356Z,1.30
2022-09-25T16:37:05.277Z,1.35
2022-09-25T16:39:36.209Z,1.50
2022-09-25T16:42:26.623Z,1.38
2022-09-25T16:45:03.942Z,1.63
2022-09-25T16:47:30.914Z,1.55
2022-09-25T16:49:57.705Z,1.52
2022-09-25T16:52:29.541Z,1.20
2022-09-25T16:54:57.506Z,1.20
2022-09-25T16:57:27.993Z,1.50
2022-09-25T16:59:55.032Z,1.67
2022-09-25T17:02:37.293Z,1.73
2022-09-25T17:05:08.377Z,2.13
2022-09-25T17:07:35.193Z,2.22
2022-09-25T17:10:02.474Z,2.35
2022-09-25T17:12:31.478Z,2.20
2022-09-25T17:14:58.673Z,2.08
2022-09-25T17:17:25.527Z,1.75
2022-09-25T17:19:52.232Z,1.63
2022-09-25T17:22:18.997Z,1.45
2022-09-25T17:24:45.857Z,1.50
2022-09-25T17:27:14.818Z,1.58
2022-09-25T17:29:42.786Z,1.13
2022-09-25T17:32:17.807Z,1.48
2022-09-25T17:34:46.589Z,1.23
2022-09-25T17:37:13.604Z,1.48
2022-09-25T17:39:40.268Z,1.25
2022-09-25T18:35:56.238Z,1.10
2022-09-25T18:38:23.622Z,1.35
2022-09-25T18:40:59.888Z,1.08
2022-09-25T18:43:27.743Z,1.30
2022-09-25T18:45:56.645Z,3.17
2022-09-25T18:51:08.745Z,1.80
2022-09-25T18:56:27.209Z,1.50
2022-09-25T18:58:54.503Z,1.80
2022-09-25T19:01:21.715Z,1.52
2022-09-25T19:03:52.998Z,1.88
2022-09-25T19:06:20.385Z,1.75
2022-09-25T19:08:55.958Z,2.38
2022-09-25T19:11:27.604Z,1.52
2022-09-25T19:13:54.866Z,2.30
2022-09-25T19:16:22.419Z,2.22
2022-09-25T19:18:50.400Z,1.58
2022-09-25T19:21:22.451Z,1.40
2022-09-25T19:23:50.067Z,1.27
2022-09-25T19:26:20.996Z,1.40
2022-09-25T19:28:48.473Z,1.65
2022-09-25T19:31:17.884Z,1.40
2022-09-25T19:33:44.848Z,1.30
2022-09-25T19:36:38.613Z,1.58
2022-09-25T19:41:34.405Z,1.52
2022-09-25T19:44:08.182Z,1.23
2022-09-25T19:46:40.316Z,1.45
2022-09-25T19:49:07.248Z,1.33
2022-09-25T19:51:34.108Z,2.05
2022-09-25T19:54:00.789Z,1.98
2022-09-25T19:56:27.479Z,1.65
2022-09-25T19:58:54.163Z,1.40
2022-09-25T20:01:27.712Z,1.30
2022-09-25T20:03:58.290Z,1.20
2022-09-25T20:06:26.981Z,1.13
2022-09-25T20:08:58.180Z,1.30
2022-09-25T20:11:26.000Z,1.10
2022-09-25T20:13:54.123Z,1.30
2022-09-25T20:16:26.399Z,1.10
2022-09-25T20:18:57.811Z,1.30
2022-09-25T20:21:25.644Z,1.05
2022-09-25T20:23:54.478Z,1.48
2022-09-25T20:26:23.327Z,1.10
2022-09-25T20:28:59.204Z,1.17
2022-09-25T20:31:27.889Z,1.30
2022-09-25T20:33:55.102Z,1.35
2022-09-25T20:36:22.933Z,1.30
2022-09-25T20:38:51.499Z,1.90
2022-09-25T20:41:19.625Z,1.70
2022-09-25T20:43:50.740Z,1.90
2022-09-25T20:46:20.492Z,2.30
2022-09-25T20:48:51.234Z,1.65
2022-09-25T20:51:20.831Z,2.17
2022-09-25T20:53:52.164Z,2.17
2022-09-25T20:56:19.617Z,1.92
2022-09-25T20:58:52.178Z,1.85
2022-09-25T21:01:22.910Z,1.83
2022-09-25T21:03:51.256Z,1.90
2022-09-25T21:06:19.313Z,2.30
2022-09-25T21:08:47.093Z,2.03
2022-09-25T21:11:13.893Z,2.13
2022-09-25T21:13:41.664Z,1.88
2022-09-25T21:16:11.063Z,3.50
2022-09-25T21:18:39.528Z,2.40
2022-09-25T21:21:16.143Z,2.50
2022-09-25T21:23:43.638Z,2.88
2022-09-25T21:26:14.968Z,2.50
2022-09-25T21:28:48.227Z,2.20
2022-09-25T21:33:42.615Z,3.00
2022-09-25T21:36:11.655Z,2.50
2022-09-25T21:38:38.629Z,2.53
2022-09-25T21:41:07.737Z,2.72
2022-09-25T21:43:35.641Z,2.88
2022-09-25T21:46:07.815Z,2.53
2022-09-25T21:48:36.156Z,2.55
2022-09-25T21:51:05.324Z,2.55
2022-09-25T21:53:33.936Z,2.75
2022-09-25T21:56:02.565Z,2.67
2022-09-25T21:58:29.630Z,2.67
2022-09-25T22:01:26.928Z,3.08
2022-09-25T22:03:57.020Z,2.70
2022-09-25T22:06:30.340Z,3.08
2022-09-25T22:09:01.705Z,4.20
2022-09-25T22:11:29.257Z,3.50
2022-09-25T22:13:57.874Z,4.05
2022-09-25T22:16:37.039Z,3.10
2022-09-25T22:19:19.153Z,3.70
2022-09-25T22:21:47.781Z,3.28
2022-09-25T22:24:18.131Z,3.50
2022-09-25T22:26:49.508Z,2.35
2022-09-25T22:29:21.159Z,2.70
2022-09-25T22:31:48.658Z,3.42
2022-09-25T22:34:18.410Z,4.47
2022-09-25T22:36:45.182Z,4.13
2022-09-25T22:39:14.430Z,3.83
2022-09-25T22:41:41.591Z,2.80
2022-09-25T22:44:08.454Z,2.70
2022-09-25T22:46:35.272Z,3.15
2022-09-25T22:49:02.914Z,3.60
2022-09-25T22:51:29.714Z,3.53
2022-09-25T22:53:56.504Z,3.00
2022-09-25T22:56:24.827Z,3.63
2022-09-25T22:58:57.678Z,3.08
2022-09-25T23:01:38.003Z,4.60
2022-09-25T23:04:07.762Z,3.75
2022-09-25T23:06:35.115Z,3.05
2022-09-25T23:09:05.447Z,3.40
2022-09-25T23:11:32.589Z,3.42
2022-09-25T23:14:01.684Z,4.10
2022-09-25T23:16:29.990Z,2.88
2022-09-25T23:19:00.762Z,3.53
2022-09-25T23:21:28.990Z,2.80
2022-09-25T23:24:00.951Z,3.08
2022-09-25T23:26:28.906Z,2.85
2022-09-25T23:28:55.883Z,2.95
2022-09-25T23:31:22.703Z,3.33
2022-09-25T23:33:49.491Z,3.60
2022-09-25T23:36:20.296Z,2.53
2022-09-25T23:38:48.304Z,3.03
2022-09-25T23:41:19.646Z,3.00
2022-09-25T23:43:47.650Z,2.30
2022-09-25T23:46:16.170Z,3.85
2022-09-25T23:48:44.220Z,3.08
2022-09-25T23:51:12.069Z,2.85
2022-09-25T23:53:38.899Z,3.05
2022-09-25T23:56:16.018Z,2.97
2022-09-25T23:58:43.124Z,3.95
